sensor_id;sensor_type;location;lat;lon;timestamp;P1;durP1;ratioP1;P2;durP2;ratioP2
20287;SDS011;10303;51.960;8.372;2024-01-30T00:02:14;6.07;;;2.63;;
20287;SDS011;10303;51.960;8.372;2024-01-30T00:04:40;3.37;;;2.60;;
20287;SDS011;10303;51.960;8.372;2024-01-30T00:07:06;2.97;;;2.30;;
20287;SDS011;10303;51.960;8.372;2024-01-30T00:09:32;4.33;;;2.87;;
20287;SDS011;10303;51.960;8.372;2024-01-30T00:11:58;3.43;;;2.73;;
20287;SDS011;10303;51.960;8.372;2024-01-30T00:14:24;3.67;;;3.03;;
20287;SDS011;10303;51.960;8.372;2024-01-30T00:16:51;4.50;;;2.63;;
20287;SDS011;10303;51.960;8.372;2024-01-30T00:19:17;4.60;;;2.80;;
20287;SDS011;10303;51.960;8.372;2024-01-30T00:21:43;3.90;;;3.37;;
20287;SDS011;10303;51.960;8.372;2024-01-30T00:24:09;4.17;;;2.87;;
20287;SDS011;10303;51.960;8.372;2024-01-30T00:26:35;2.93;;;2.63;;
20287;SDS011;10303;51.960;8.372;2024-01-30T00:29:01;3.27;;;2.90;;
20287;SDS011;10303;51.960;8.372;2024-01-30T00:31:27;5.80;;;2.63;;
20287;SDS011;10303;51.960;8.372;2024-01-30T00:33:53;3.97;;;3.03;;
20287;SDS011;10303;51.960;8.372;2024-01-30T00:36:19;7.97;;;3.00;;
20287;SDS011;10303;51.960;8.372;2024-01-30T00:38:45;4.07;;;3.17;;
20287;SDS011;10303;51.960;8.372;2024-01-30T00:41:11;4.13;;;3.20;;
20287;SDS011;10303;51.960;8.372;2024-01-30T00:43:37;6.60;;;2.93;;
20287;SDS011;10303;51.960;8.372;2024-01-30T00:46:03;3.50;;;3.10;;
20287;SDS011;10303;51.960;8.372;2024-01-30T00:48:29;4.90;;;3.20;;
20287;SDS011;10303;51.960;8.372;2024-01-30T00:50:54;4.50;;;3.63;;
20287;SDS011;10303;51.960;8.372;2024-01-30T00:53:20;3.33;;;3.07;;
20287;SDS011;10303;51.960;8.372;2024-01-30T00:55:46;3.20;;;2.93;;
20287;SDS011;10303;51.960;8.372;2024-01-30T00:58:12;3.13;;;2.77;;
20287;SDS011;10303;51.960;8.372;2024-01-30T01:00:39;3.50;;;2.63;;
20287;SDS011;10303;51.960;8.372;2024-01-30T01:03:05;3.00;;;2.70;;
20287;SDS011;10303;51.960;8.372;2024-01-30T01:05:31;3.13;;;2.83;;
20287;SDS011;10303;51.960;8.372;2024-01-30T01:07:57;2.90;;;2.63;;
20287;SDS011;10303;51.960;8.372;2024-01-30T01:10:23;2.77;;;2.53;;
20287;SDS011;10303;51.960;8.372;2024-01-30T01:12:48;2.60;;;2.40;;
20287;SDS011;10303;51.960;8.372;2024-01-30T01:15:15;4.00;;;2.67;;
20287;SDS011;10303;51.960;8.372;2024-01-30T01:17:40;3.40;;;3.00;;
20287;SDS011;10303;51.960;8.372;2024-01-30T01:20:07;3.30;;;2.70;;
20287;SDS011;10303;51.960;8.372;2024-01-30T01:22:35;3.07;;;2.53;;
20287;SDS011;10303;51.960;8.372;2024-01-30T01:25:04;3.30;;;3.00;;
20287;SDS011;10303;51.960;8.372;2024-01-30T01:27:33;4.40;;;3.20;;
20287;SDS011;10303;51.960;8.372;2024-01-30T01:30:03;2.80;;;2.27;;
20287;SDS011;10303;51.960;8.372;2024-01-30T01:32:31;2.77;;;2.50;;
20287;SDS011;10303;51.960;8.372;2024-01-30T01:34:57;3.50;;;2.63;;
20287;SDS011;10303;51.960;8.372;2024-01-30T01:37:22;2.33;;;2.13;;
20287;SDS011;10303;51.960;8.372;2024-01-30T01:39:52;4.90;;;2.80;;
20287;SDS011;10303;51.960;8.372;2024-01-30T01:42:18;2.93;;;2.67;;
20287;SDS011;10303;51.960;8.372;2024-01-30T01:44:43;3.10;;;2.80;;
20287;SDS011;10303;51.960;8.372;2024-01-30T01:47:09;4.37;;;3.50;;
20287;SDS011;10303;51.960;8.372;2024-01-30T01:49:36;2.90;;;2.67;;
20287;SDS011;10303;51.960;8.372;2024-01-30T01:52:03;5.10;;;3.77;;
20287;SDS011;10303;51.960;8.372;2024-01-30T01:54:29;5.00;;;4.30;;
20287;SDS011;10303;51.960;8.372;2024-01-30T01:56:56;5.23;;;2.90;;
20287;SDS011;10303;51.960;8.372;2024-01-30T01:59:22;3.27;;;2.97;;
20287;SDS011;10303;51.960;8.372;2024-01-30T02:01:50;3.53;;;2.63;;
20287;SDS011;10303;51.960;8.372;2024-01-30T02:04:18;3.37;;;3.07;;
20287;SDS011;10303;51.960;8.372;2024-01-30T02:06:44;3.10;;;2.60;;
20287;SDS011;10303;51.960;8.372;2024-01-30T02:09:10;4.10;;;3.00;;
20287;SDS011;10303;51.960;8.372;2024-01-30T02:11:36;3.80;;;2.90;;
20287;SDS011;10303;51.960;8.372;2024-01-30T02:14:04;3.10;;;2.87;;
20287;SDS011;10303;51.960;8.372;2024-01-30T02:16:33;5.07;;;3.00;;
20287;SDS011;10303;51.960;8.372;2024-01-30T02:18:59;5.77;;;3.43;;
20287;SDS011;10303;51.960;8.372;2024-01-30T02:21:25;3.07;;;2.80;;
20287;SDS011;10303;51.960;8.372;2024-01-30T02:23:51;3.17;;;2.87;;
20287;SDS011;10303;51.960;8.372;2024-01-30T02:26:20;3.07;;;2.40;;
20287;SDS011;10303;51.960;8.372;2024-01-30T02:28:46;3.87;;;3.20;;
20287;SDS011;10303;51.960;8.372;2024-01-30T02:31:12;4.73;;;3.27;;
20287;SDS011;10303;51.960;8.372;2024-01-30T02:33:37;3.13;;;2.80;;
20287;SDS011;10303;51.960;8.372;2024-01-30T02:36:03;5.17;;;3.00;;
20287;SDS011;10303;51.960;8.372;2024-01-30T02:38:30;4.10;;;3.40;;
20287;SDS011;10303;51.960;8.372;2024-01-30T02:40:55;3.03;;;2.73;;
20287;SDS011;10303;51.960;8.372;2024-01-30T02:43:21;3.90;;;3.10;;
20287;SDS011;10303;51.960;8.372;2024-01-30T02:45:47;2.80;;;2.57;;
20287;SDS011;10303;51.960;8.372;2024-01-30T02:48:13;3.33;;;2.73;;
20287;SDS011;10303;51.960;8.372;2024-01-30T02:50:39;3.67;;;2.80;;
20287;SDS011;10303;51.960;8.372;2024-01-30T02:53:05;4.03;;;3.20;;
20287;SDS011;10303;51.960;8.372;2024-01-30T02:55:31;4.53;;;3.47;;
20287;SDS011;10303;51.960;8.372;2024-01-30T02:57:58;3.10;;;2.80;;
20287;SDS011;10303;51.960;8.372;2024-01-30T03:00:24;3.83;;;3.23;;
20287;SDS011;10303;51.960;8.372;2024-01-30T03:02:50;3.23;;;2.90;;
20287;SDS011;10303;51.960;8.372;2024-01-30T03:05:16;2.73;;;2.50;;
20287;SDS011;10303;51.960;8.372;2024-01-30T03:07:42;4.23;;;3.07;;
20287;SDS011;10303;51.960;8.372;2024-01-30T03:10:08;3.43;;;2.87;;
20287;SDS011;10303;51.960;8.372;2024-01-30T03:12:34;3.27;;;2.97;;
20287;SDS011;10303;51.960;8.372;2024-01-30T03:15:00;4.10;;;3.53;;
20287;SDS011;10303;51.960;8.372;2024-01-30T03:17:25;4.77;;;3.03;;
20287;SDS011;10303;51.960;8.372;2024-01-30T03:19:51;3.90;;;2.90;;
20287;SDS011;10303;51.960;8.372;2024-01-30T03:22:17;4.07;;;2.63;;
20287;SDS011;10303;51.960;8.372;2024-01-30T03:24:43;3.40;;;3.10;;
20287;SDS011;10303;51.960;8.372;2024-01-30T03:27:09;5.00;;;3.40;;
20287;SDS011;10303;51.960;8.372;2024-01-30T03:29:35;4.13;;;3.07;;
20287;SDS011;10303;51.960;8.372;2024-01-30T03:32:01;3.40;;;3.07;;
20287;SDS011;10303;51.960;8.372;2024-01-30T03:34:29;4.13;;;3.27;;
20287;SDS011;10303;51.960;8.372;2024-01-30T03:36:55;3.33;;;3.00;;
20287;SDS011;10303;51.960;8.372;2024-01-30T03:39:21;3.33;;;3.03;;
20287;SDS011;10303;51.960;8.372;2024-01-30T03:41:46;2.80;;;2.60;;
20287;SDS011;10303;51.960;8.372;2024-01-30T03:44:12;2.73;;;2.47;;
20287;SDS011;10303;51.960;8.372;2024-01-30T03:46:38;4.30;;;2.87;;
20287;SDS011;10303;51.960;8.372;2024-01-30T03:49:04;3.63;;;3.10;;
20287;SDS011;10303;51.960;8.372;2024-01-30T03:51:30;3.10;;;2.30;;
20287;SDS011;10303;51.960;8.372;2024-01-30T03:53:56;2.90;;;2.70;;
20287;SDS011;10303;51.960;8.372;2024-01-30T03:56:21;2.83;;;2.63;;
20287;SDS011;10303;51.960;8.372;2024-01-30T03:58:47;2.73;;;2.53;;
20287;SDS011;10303;51.960;8.372;2024-01-30T04:01:14;6.83;;;3.13;;
20287;SDS011;10303;51.960;8.372;2024-01-30T04:03:40;3.83;;;3.00;;
20287;SDS011;10303;51.960;8.372;2024-01-30T04:06:07;3.90;;;3.50;;
20287;SDS011;10303;51.960;8.372;2024-01-30T04:08:33;3.67;;;2.70;;
20287;SDS011;10303;51.960;8.372;2024-01-30T04:11:03;3.53;;;3.23;;
20287;SDS011;10303;51.960;8.372;2024-01-30T04:13:31;3.80;;;2.93;;
20287;SDS011;10303;51.960;8.372;2024-01-30T04:16:01;3.70;;;3.20;;
20287;SDS011;10303;51.960;8.372;2024-01-30T04:18:28;3.47;;;2.70;;
20287;SDS011;10303;51.960;8.372;2024-01-30T04:20:54;3.40;;;2.70;;
20287;SDS011;10303;51.960;8.372;2024-01-30T04:23:20;3.40;;;2.80;;
20287;SDS011;10303;51.960;8.372;2024-01-30T04:25:46;3.00;;;2.63;;
20287;SDS011;10303;51.960;8.372;2024-01-30T04:28:13;3.50;;;2.97;;
20287;SDS011;10303;51.960;8.372;2024-01-30T04:30:39;3.33;;;2.73;;
20287;SDS011;10303;51.960;8.372;2024-01-30T04:33:05;3.20;;;2.73;;
20287;SDS011;10303;51.960;8.372;2024-01-30T04:35:31;3.87;;;2.77;;
20287;SDS011;10303;51.960;8.372;2024-01-30T04:37:57;3.00;;;2.70;;
20287;SDS011;10303;51.960;8.372;2024-01-30T04:40:23;3.00;;;2.70;;
20287;SDS011;10303;51.960;8.372;2024-01-30T04:42:48;5.00;;;3.47;;
20287;SDS011;10303;51.960;8.372;2024-01-30T04:45:15;4.17;;;3.60;;
20287;SDS011;10303;51.960;8.372;2024-01-30T04:47:40;2.97;;;2.67;;
20287;SDS011;10303;51.960;8.372;2024-01-30T04:50:06;3.30;;;2.97;;
20287;SDS011;10303;51.960;8.372;2024-01-30T04:52:34;2.63;;;2.43;;
20287;SDS011;10303;51.960;8.372;2024-01-30T04:55:00;4.00;;;2.50;;
20287;SDS011;10303;51.960;8.372;2024-01-30T04:57:26;3.53;;;2.90;;
20287;SDS011;10303;51.960;8.372;2024-01-30T04:59:53;5.23;;;3.27;;
20287;SDS011;10303;51.960;8.372;2024-01-30T05:02:19;4.90;;;3.50;;
20287;SDS011;10303;51.960;8.372;2024-01-30T05:04:44;5.63;;;3.13;;
20287;SDS011;10303;51.960;8.372;2024-01-30T05:07:10;4.00;;;3.07;;
20287;SDS011;10303;51.960;8.372;2024-01-30T05:09:36;3.33;;;2.40;;
20287;SDS011;10303;51.960;8.372;2024-01-30T05:12:02;6.43;;;2.97;;
20287;SDS011;10303;51.960;8.372;2024-01-30T05:14:28;9.57;;;3.67;;
20287;SDS011;10303;51.960;8.372;2024-01-30T05:16:54;6.03;;;3.70;;
20287;SDS011;10303;51.960;8.372;2024-01-30T05:19:20;4.20;;;3.40;;
20287;SDS011;10303;51.960;8.372;2024-01-30T05:21:48;5.27;;;3.40;;
20287;SDS011;10303;51.960;8.372;2024-01-30T05:24:15;3.87;;;3.23;;
20287;SDS011;10303;51.960;8.372;2024-01-30T05:26:41;4.83;;;3.23;;
20287;SDS011;10303;51.960;8.372;2024-01-30T05:29:07;3.13;;;2.83;;
20287;SDS011;10303;51.960;8.372;2024-01-30T05:31:33;4.33;;;2.77;;
20287;SDS011;10303;51.960;8.372;2024-01-30T05:33:59;3.93;;;3.43;;
20287;SDS011;10303;51.960;8.372;2024-01-30T05:36:26;4.30;;;3.73;;
20287;SDS011;10303;51.960;8.372;2024-01-30T05:38:52;4.63;;;3.03;;
20287;SDS011;10303;51.960;8.372;2024-01-30T05:41:18;5.00;;;4.23;;
20287;SDS011;10303;51.960;8.372;2024-01-30T05:43:44;4.50;;;3.03;;
20287;SDS011;10303;51.960;8.372;2024-01-30T05:46:10;4.37;;;2.97;;
20287;SDS011;10303;51.960;8.372;2024-01-30T05:48:36;3.83;;;3.40;;
20287;SDS011;10303;51.960;8.372;2024-01-30T05:51:02;2.97;;;2.50;;
20287;SDS011;10303;51.960;8.372;2024-01-30T05:53:29;4.77;;;3.10;;
20287;SDS011;10303;51.960;8.372;2024-01-30T05:55:55;3.17;;;2.87;;
20287;SDS011;10303;51.960;8.372;2024-01-30T05:58:21;4.30;;;3.13;;
20287;SDS011;10303;51.960;8.372;2024-01-30T06:00:47;4.20;;;3.03;;
20287;SDS011;10303;51.960;8.372;2024-01-30T06:03:13;4.17;;;2.77;;
20287;SDS011;10303;51.960;8.372;2024-01-30T06:05:38;3.10;;;2.80;;
20287;SDS011;10303;51.960;8.372;2024-01-30T06:08:04;3.70;;;2.83;;
20287;SDS011;10303;51.960;8.372;2024-01-30T06:10:31;3.33;;;3.00;;
20287;SDS011;10303;51.960;8.372;2024-01-30T06:12:57;3.10;;;2.80;;
20287;SDS011;10303;51.960;8.372;2024-01-30T06:15:22;2.80;;;2.57;;
20287;SDS011;10303;51.960;8.372;2024-01-30T06:17:48;3.07;;;2.60;;
20287;SDS011;10303;51.960;8.372;2024-01-30T06:20:14;3.03;;;2.73;;
20287;SDS011;10303;51.960;8.372;2024-01-30T06:22:40;2.77;;;2.53;;
20287;SDS011;10303;51.960;8.372;2024-01-30T06:25:06;3.77;;;2.50;;
20287;SDS011;10303;51.960;8.372;2024-01-30T06:27:32;3.10;;;2.80;;
20287;SDS011;10303;51.960;8.372;2024-01-30T06:29:58;4.37;;;2.87;;
20287;SDS011;10303;51.960;8.372;2024-01-30T06:32:24;3.97;;;2.53;;
20287;SDS011;10303;51.960;8.372;2024-01-30T06:34:50;5.27;;;3.10;;
20287;SDS011;10303;51.960;8.372;2024-01-30T06:37:16;2.40;;;2.20;;
20287;SDS011;10303;51.960;8.372;2024-01-30T06:39:42;3.40;;;3.10;;
20287;SDS011;10303;51.960;8.372;2024-01-30T06:42:07;2.73;;;2.53;;
20287;SDS011;10303;51.960;8.372;2024-01-30T06:44:33;3.13;;;2.80;;
20287;SDS011;10303;51.960;8.372;2024-01-30T06:46:59;3.23;;;2.93;;
20287;SDS011;10303;51.960;8.372;2024-01-30T06:49:25;2.93;;;2.73;;
20287;SDS011;10303;51.960;8.372;2024-01-30T06:51:51;3.33;;;3.03;;
20287;SDS011;10303;51.960;8.372;2024-01-30T06:54:17;4.10;;;2.70;;
20287;SDS011;10303;51.960;8.372;2024-01-30T06:56:43;2.60;;;2.40;;
20287;SDS011;10303;51.960;8.372;2024-01-30T06:59:09;2.47;;;2.10;;
20287;SDS011;10303;51.960;8.372;2024-01-30T07:01:35;3.07;;;2.63;;
20287;SDS011;10303;51.960;8.372;2024-01-30T07:04:01;2.27;;;2.03;;
20287;SDS011;10303;51.960;8.372;2024-01-30T07:06:27;3.57;;;2.20;;
20287;SDS011;10303;51.960;8.372;2024-01-30T07:08:52;2.50;;;2.20;;
20287;SDS011;10303;51.960;8.372;2024-01-30T07:11:21;2.60;;;2.40;;
20287;SDS011;10303;51.960;8.372;2024-01-30T07:13:50;2.73;;;2.47;;
20287;SDS011;10303;51.960;8.372;2024-01-30T07:16:16;3.37;;;2.40;;
20287;SDS011;10303;51.960;8.372;2024-01-30T07:18:43;3.33;;;2.57;;
20287;SDS011;10303;51.960;8.372;2024-01-30T07:21:09;4.17;;;2.47;;
20287;SDS011;10303;51.960;8.372;2024-01-30T07:23:36;4.20;;;2.83;;
20287;SDS011;10303;51.960;8.372;2024-01-30T07:26:07;2.67;;;2.47;;
20287;SDS011;10303;51.960;8.372;2024-01-30T07:28:34;2.80;;;2.50;;
20287;SDS011;10303;51.960;8.372;2024-01-30T07:31:00;4.17;;;2.57;;
20287;SDS011;10303;51.960;8.372;2024-01-30T07:33:27;3.00;;;2.70;;
20287;SDS011;10303;51.960;8.372;2024-01-30T07:35:53;3.73;;;3.13;;
20287;SDS011;10303;51.960;8.372;2024-01-30T07:38:19;4.90;;;3.50;;
20287;SDS011;10303;51.960;8.372;2024-01-30T07:40:45;3.70;;;3.00;;
20287;SDS011;10303;51.960;8.372;2024-01-30T07:43:11;3.80;;;2.93;;
20287;SDS011;10303;51.960;8.372;2024-01-30T07:45:37;3.00;;;2.77;;
20287;SDS011;10303;51.960;8.372;2024-01-30T07:48:04;3.50;;;2.90;;
20287;SDS011;10303;51.960;8.372;2024-01-30T07:50:31;2.97;;;2.70;;
20287;SDS011;10303;51.960;8.372;2024-01-30T07:52:58;2.83;;;2.53;;
20287;SDS011;10303;51.960;8.372;2024-01-30T07:55:25;4.47;;;2.80;;
20287;SDS011;10303;51.960;8.372;2024-01-30T07:57:56;3.23;;;2.63;;
20287;SDS011;10303;51.960;8.372;2024-01-30T08:00:22;3.33;;;2.70;;
20287;SDS011;10303;51.960;8.372;2024-01-30T08:02:48;2.80;;;2.57;;
20287;SDS011;10303;51.960;8.372;2024-01-30T08:05:14;2.77;;;2.33;;
20287;SDS011;10303;51.960;8.372;2024-01-30T08:07:43;2.60;;;2.33;;
20287;SDS011;10303;51.960;8.372;2024-01-30T08:10:11;3.57;;;2.30;;
20287;SDS011;10303;51.960;8.372;2024-01-30T08:12:38;4.13;;;2.63;;
20287;SDS011;10303;51.960;8.372;2024-01-30T08:15:04;2.93;;;2.47;;
20287;SDS011;10303;51.960;8.372;2024-01-30T08:17:31;2.87;;;2.60;;
20287;SDS011;10303;51.960;8.372;2024-01-30T08:19:57;3.20;;;2.80;;
20287;SDS011;10303;51.960;8.372;2024-01-30T08:22:22;2.67;;;2.43;;
20287;SDS011;10303;51.960;8.372;2024-01-30T08:24:48;3.80;;;2.77;;
20287;SDS011;10303;51.960;8.372;2024-01-30T08:27:14;3.17;;;2.60;;
20287;SDS011;10303;51.960;8.372;2024-01-30T08:29:40;3.83;;;2.87;;
20287;SDS011;10303;51.960;8.372;2024-01-30T08:32:06;2.77;;;2.20;;
20287;SDS011;10303;51.960;8.372;2024-01-30T08:34:32;4.47;;;2.53;;
20287;SDS011;10303;51.960;8.372;2024-01-30T08:36:59;3.57;;;2.57;;
20287;SDS011;10303;51.960;8.372;2024-01-30T08:39:25;2.97;;;2.27;;
20287;SDS011;10303;51.960;8.372;2024-01-30T08:41:51;3.40;;;2.90;;
20287;SDS011;10303;51.960;8.372;2024-01-30T08:44:17;2.83;;;2.37;;
20287;SDS011;10303;51.960;8.372;2024-01-30T08:46:43;3.17;;;2.87;;
20287;SDS011;10303;51.960;8.372;2024-01-30T08:49:12;2.43;;;2.10;;
20287;SDS011;10303;51.960;8.372;2024-01-30T08:51:39;4.60;;;2.97;;
20287;SDS011;10303;51.960;8.372;2024-01-30T08:54:05;3.60;;;3.10;;
20287;SDS011;10303;51.960;8.372;2024-01-30T08:56:31;4.10;;;3.03;;
20287;SDS011;10303;51.960;8.372;2024-01-30T08:58:57;4.50;;;3.87;;
20287;SDS011;10303;51.960;8.372;2024-01-30T09:01:22;3.27;;;2.77;;
20287;SDS011;10303;51.960;8.372;2024-01-30T09:03:48;4.43;;;3.83;;
20287;SDS011;10303;51.960;8.372;2024-01-30T09:06:14;4.67;;;3.47;;
20287;SDS011;10303;51.960;8.372;2024-01-30T09:08:40;3.50;;;2.80;;
20287;SDS011;10303;51.960;8.372;2024-01-30T09:11:09;5.47;;;4.63;;
20287;SDS011;10303;51.960;8.372;2024-01-30T09:13:38;12.60;;;4.43;;
20287;SDS011;10303;51.960;8.372;2024-01-30T09:16:05;5.83;;;4.73;;
20287;SDS011;10303;51.960;8.372;2024-01-30T09:18:32;4.07;;;3.67;;
20287;SDS011;10303;51.960;8.372;2024-01-30T09:20:58;5.73;;;4.40;;
20287;SDS011;10303;51.960;8.372;2024-01-30T09:23:24;6.17;;;5.10;;
20287;SDS011;10303;51.960;8.372;2024-01-30T09:25:52;6.17;;;4.43;;
20287;SDS011;10303;51.960;8.372;2024-01-30T09:28:17;5.07;;;3.33;;
20287;SDS011;10303;51.960;8.372;2024-01-30T09:30:43;4.97;;;4.20;;
20287;SDS011;10303;51.960;8.372;2024-01-30T09:33:09;4.47;;;3.97;;
20287;SDS011;10303;51.960;8.372;2024-01-30T09:35:35;4.30;;;3.90;;
20287;SDS011;10303;51.960;8.372;2024-01-30T09:38:02;4.77;;;3.83;;
20287;SDS011;10303;51.960;8.372;2024-01-30T09:40:28;4.00;;;3.70;;
20287;SDS011;10303;51.960;8.372;2024-01-30T09:42:54;5.43;;;4.17;;
20287;SDS011;10303;51.960;8.372;2024-01-30T09:45:24;6.03;;;4.23;;
20287;SDS011;10303;51.960;8.372;2024-01-30T09:47:51;4.70;;;3.53;;
20287;SDS011;10303;51.960;8.372;2024-01-30T09:50:18;4.53;;;3.47;;
20287;SDS011;10303;51.960;8.372;2024-01-30T09:52:45;4.77;;;3.60;;
20287;SDS011;10303;51.960;8.372;2024-01-30T09:55:12;5.73;;;4.20;;
20287;SDS011;10303;51.960;8.372;2024-01-30T09:57:39;6.37;;;3.87;;
20287;SDS011;10303;51.960;8.372;2024-01-30T10:00:07;6.07;;;3.90;;
20287;SDS011;10303;51.960;8.372;2024-01-30T10:02:40;5.63;;;3.93;;
20287;SDS011;10303;51.960;8.372;2024-01-30T10:05:06;5.70;;;4.20;;
20287;SDS011;10303;51.960;8.372;2024-01-30T10:07:33;5.93;;;4.50;;
20287;SDS011;10303;51.960;8.372;2024-01-30T10:09:59;3.63;;;3.33;;
20287;SDS011;10303;51.960;8.372;2024-01-30T10:12:26;7.37;;;4.17;;
20287;SDS011;10303;51.960;8.372;2024-01-30T10:14:52;5.27;;;4.00;;
20287;SDS011;10303;51.960;8.372;2024-01-30T10:17:19;4.10;;;3.67;;
20287;SDS011;10303;51.960;8.372;2024-01-30T10:19:46;5.60;;;4.17;;
20287;SDS011;10303;51.960;8.372;2024-01-30T10:22:12;4.00;;;3.47;;
20287;SDS011;10303;51.960;8.372;2024-01-30T10:24:39;5.47;;;3.57;;
20287;SDS011;10303;51.960;8.372;2024-01-30T10:27:08;4.27;;;3.37;;
20287;SDS011;10303;51.960;8.372;2024-01-30T10:29:34;3.90;;;3.53;;
20287;SDS011;10303;51.960;8.372;2024-01-30T10:32:00;4.57;;;4.03;;
20287;SDS011;10303;51.960;8.372;2024-01-30T10:34:28;4.03;;;3.37;;
20287;SDS011;10303;51.960;8.372;2024-01-30T10:37:06;3.23;;;2.93;;
20287;SDS011;10303;51.960;8.372;2024-01-30T10:39:38;3.80;;;3.47;;
20287;SDS011;10303;51.960;8.372;2024-01-30T10:42:05;5.00;;;4.13;;
20287;SDS011;10303;51.960;8.372;2024-01-30T10:44:43;5.47;;;4.40;;
20287;SDS011;10303;51.960;8.372;2024-01-30T10:47:52;6.20;;;4.37;;
20287;SDS011;10303;51.960;8.372;2024-01-30T10:50:24;4.40;;;4.00;;
20287;SDS011;10303;51.960;8.372;2024-01-30T10:52:50;4.63;;;3.90;;
20287;SDS011;10303;51.960;8.372;2024-01-30T10:55:17;5.07;;;4.37;;
20287;SDS011;10303;51.960;8.372;2024-01-30T10:57:44;5.13;;;3.87;;
20287;SDS011;10303;51.960;8.372;2024-01-30T11:00:10;4.30;;;3.90;;
20287;SDS011;10303;51.960;8.372;2024-01-30T11:02:44;4.50;;;3.80;;
20287;SDS011;10303;51.960;8.372;2024-01-30T11:05:12;5.37;;;3.53;;
20287;SDS011;10303;51.960;8.372;2024-01-30T11:07:40;4.53;;;4.00;;
20287;SDS011;10303;51.960;8.372;2024-01-30T11:10:06;5.27;;;4.17;;
20287;SDS011;10303;51.960;8.372;2024-01-30T11:12:40;4.43;;;3.63;;
20287;SDS011;10303;51.960;8.372;2024-01-30T11:15:09;5.70;;;4.17;;
20287;SDS011;10303;51.960;8.372;2024-01-30T11:20:16;4.30;;;3.90;;
20287;SDS011;10303;51.960;8.372;2024-01-30T11:22:49;4.53;;;4.13;;
20287;SDS011;10303;51.960;8.372;2024-01-30T11:25:19;4.27;;;3.00;;
20287;SDS011;10303;51.960;8.372;2024-01-30T11:27:49;5.23;;;3.93;;
20287;SDS011;10303;51.960;8.372;2024-01-30T11:33:03;3.63;;;3.33;;
20287;SDS011;10303;51.960;8.372;2024-01-30T11:35:33;3.33;;;2.93;;
20287;SDS011;10303;51.960;8.372;2024-01-30T11:38:08;3.50;;;2.97;;
20287;SDS011;10303;51.960;8.372;2024-01-30T11:40:39;3.33;;;2.80;;
20287;SDS011;10303;51.960;8.372;2024-01-30T11:43:06;4.87;;;3.53;;
20287;SDS011;10303;51.960;8.372;2024-01-30T11:45:34;5.43;;;3.47;;
20287;SDS011;10303;51.960;8.372;2024-01-30T11:48:01;3.60;;;3.30;;
20287;SDS011;10303;51.960;8.372;2024-01-30T11:50:32;5.33;;;3.63;;
20287;SDS011;10303;51.960;8.372;2024-01-30T11:52:59;3.83;;;3.43;;
20287;SDS011;10303;51.960;8.372;2024-01-30T11:55:25;3.23;;;2.93;;
20287;SDS011;10303;51.960;8.372;2024-01-30T11:57:55;4.03;;;3.50;;
20287;SDS011;10303;51.960;8.372;2024-01-30T12:00:23;3.57;;;2.83;;
20287;SDS011;10303;51.960;8.372;2024-01-30T12:02:53;4.60;;;3.67;;
20287;SDS011;10303;51.960;8.372;2024-01-30T12:05:25;3.57;;;3.27;;
20287;SDS011;10303;51.960;8.372;2024-01-30T12:07:53;5.60;;;3.33;;
20287;SDS011;10303;51.960;8.372;2024-01-30T12:10:19;5.70;;;3.27;;
20287;SDS011;10303;51.960;8.372;2024-01-30T12:12:51;5.30;;;4.40;;
20287;SDS011;10303;51.960;8.372;2024-01-30T12:15:19;4.40;;;4.00;;
20287;SDS011;10303;51.960;8.372;2024-01-30T12:17:47;4.37;;;3.87;;
20287;SDS011;10303;51.960;8.372;2024-01-30T12:20:14;6.20;;;4.50;;
20287;SDS011;10303;51.960;8.372;2024-01-30T12:22:44;4.60;;;3.33;;
20287;SDS011;10303;51.960;8.372;2024-01-30T12:25:13;3.27;;;2.90;;
20287;SDS011;10303;51.960;8.372;2024-01-30T12:27:44;3.97;;;3.60;;
20287;SDS011;10303;51.960;8.372;2024-01-30T12:30:15;3.63;;;3.13;;
20287;SDS011;10303;51.960;8.372;2024-01-30T12:32:43;3.07;;;2.77;;
20287;SDS011;10303;51.960;8.372;2024-01-30T12:35:14;4.33;;;3.40;;
20287;SDS011;10303;51.960;8.372;2024-01-30T12:37:45;3.80;;;2.70;;
20287;SDS011;10303;51.960;8.372;2024-01-30T12:40:13;3.77;;;2.83;;
20287;SDS011;10303;51.960;8.372;2024-01-30T12:42:41;5.73;;;4.00;;
20287;SDS011;10303;51.960;8.372;2024-01-30T12:45:08;4.07;;;3.53;;
20287;SDS011;10303;51.960;8.372;2024-01-30T12:47:34;3.43;;;2.80;;
20287;SDS011;10303;51.960;8.372;2024-01-30T12:50:00;4.50;;;2.90;;
20287;SDS011;10303;51.960;8.372;2024-01-30T12:52:26;3.50;;;2.80;;
20287;SDS011;10303;51.960;8.372;2024-01-30T12:54:54;5.90;;;3.47;;
20287;SDS011;10303;51.960;8.372;2024-01-30T12:57:20;4.90;;;3.70;;
20287;SDS011;10303;51.960;8.372;2024-01-30T12:59:46;4.70;;;3.80;;
20287;SDS011;10303;51.960;8.372;2024-01-30T13:02:13;3.67;;;3.37;;
20287;SDS011;10303;51.960;8.372;2024-01-30T13:04:40;5.30;;;3.07;;
20287;SDS011;10303;51.960;8.372;2024-01-30T13:07:06;4.10;;;3.40;;
20287;SDS011;10303;51.960;8.372;2024-01-30T13:09:32;3.93;;;3.57;;
20287;SDS011;10303;51.960;8.372;2024-01-30T13:11:58;3.17;;;2.93;;
20287;SDS011;10303;51.960;8.372;2024-01-30T13:14:25;6.13;;;3.40;;
20287;SDS011;10303;51.960;8.372;2024-01-30T13:16:51;4.10;;;3.00;;
20287;SDS011;10303;51.960;8.372;2024-01-30T13:19:17;3.47;;;2.80;;
20287;SDS011;10303;51.960;8.372;2024-01-30T13:21:44;5.13;;;3.37;;
20287;SDS011;10303;51.960;8.372;2024-01-30T13:24:10;6.13;;;3.93;;
20287;SDS011;10303;51.960;8.372;2024-01-30T13:26:36;5.23;;;4.10;;
20287;SDS011;10303;51.960;8.372;2024-01-30T13:29:02;6.57;;;4.30;;
20287;SDS011;10303;51.960;8.372;2024-01-30T13:31:28;6.53;;;4.73;;
20287;SDS011;10303;51.960;8.372;2024-01-30T13:33:55;4.70;;;4.27;;
20287;SDS011;10303;51.960;8.372;2024-01-30T13:36:21;5.50;;;3.63;;
20287;SDS011;10303;51.960;8.372;2024-01-30T13:38:48;3.60;;;3.30;;
20287;SDS011;10303;51.960;8.372;2024-01-30T13:41:14;5.87;;;4.10;;
20287;SDS011;10303;51.960;8.372;2024-01-30T13:43:40;6.20;;;4.40;;
20287;SDS011;10303;51.960;8.372;2024-01-30T13:46:06;6.50;;;5.17;;
20287;SDS011;10303;51.960;8.372;2024-01-30T13:48:32;6.97;;;4.63;;
20287;SDS011;10303;51.960;8.372;2024-01-30T13:50:57;4.87;;;4.03;;
20287;SDS011;10303;51.960;8.372;2024-01-30T13:53:23;6.73;;;4.73;;
20287;SDS011;10303;51.960;8.372;2024-01-30T13:55:49;7.90;;;5.03;;
20287;SDS011;10303;51.960;8.372;2024-01-30T13:58:15;6.93;;;5.27;;
20287;SDS011;10303;51.960;8.372;2024-01-30T14:00:41;13.47;;;5.23;;
20287;SDS011;10303;51.960;8.372;2024-01-30T14:03:07;6.17;;;4.43;;
20287;SDS011;10303;51.960;8.372;2024-01-30T14:05:33;6.47;;;4.53;;
20287;SDS011;10303;51.960;8.372;2024-01-30T14:07:59;10.43;;;6.03;;
20287;SDS011;10303;51.960;8.372;2024-01-30T14:10:25;6.17;;;4.70;;
20287;SDS011;10303;51.960;8.372;2024-01-30T14:12:51;5.70;;;5.13;;
20287;SDS011;10303;51.960;8.372;2024-01-30T14:15:17;5.93;;;4.83;;
20287;SDS011;10303;51.960;8.372;2024-01-30T14:17:44;11.10;;;4.20;;
20287;SDS011;10303;51.960;8.372;2024-01-30T14:20:12;5.70;;;4.40;;
20287;SDS011;10303;51.960;8.372;2024-01-30T14:22:39;5.47;;;4.07;;
20287;SDS011;10303;51.960;8.372;2024-01-30T14:25:05;7.40;;;4.47;;
20287;SDS011;10303;51.960;8.372;2024-01-30T14:27:32;6.63;;;4.53;;
20287;SDS011;10303;51.960;8.372;2024-01-30T14:29:58;7.10;;;4.27;;
20287;SDS011;10303;51.960;8.372;2024-01-30T14:32:24;10.10;;;5.67;;
20287;SDS011;10303;51.960;8.372;2024-01-30T14:34:50;7.10;;;5.03;;
20287;SDS011;10303;51.960;8.372;2024-01-30T14:37:22;6.30;;;4.43;;
20287;SDS011;10303;51.960;8.372;2024-01-30T14:39:49;5.60;;;4.20;;
20287;SDS011;10303;51.960;8.372;2024-01-30T14:42:15;4.40;;;3.63;;
20287;SDS011;10303;51.960;8.372;2024-01-30T14:44:41;6.97;;;3.83;;
20287;SDS011;10303;51.960;8.372;2024-01-30T14:47:08;10.23;;;5.23;;
20287;SDS011;10303;51.960;8.372;2024-01-30T14:49:34;5.97;;;4.50;;
20287;SDS011;10303;51.960;8.372;2024-01-30T14:52:00;11.60;;;4.87;;